Allagash, ME

6:29 PM EDT on March 26, 2015 (GMT -0400)
Apex Wx | | Change Station
CLOSE
Current Station
Personal Weather Station
Location: Fort Kent, ME
Elevation: 541 ft
Nearby Weather Stations

Elev 541 ft 47.25 °N, 68.58 °W | Updated 28 seconds ago

Overcast
Overcast
41.5 °F
Feels Like 42 °F
N
0.0
Wind Variable Wind from West
Gusts 7.0 mph

Today
High -- | Low -- °F
--% Chance of Precip.
Yesterday
High -- | Low -- °F
Precip. -- in
6:27 AM 6:56 PM
Waxing Crescent, 46% visible
Pressure 29.63 in
Visibility 10.0 miles
Clouds Overcast 4200 ft
Windchill 42 °F
Dew Point 30 °F
Humidity 62%
Rainfall 0.00 in
Snow Depth Not available.
UV 0 out of 12
Pollen 2.50 out of 12
Air Quality Not available.
Flu Activity Not available.
METAR KFVE 262153Z AUTO 24004KT 10SM OVC042 04/M04 A2961 RMK AO2 SLP034 T00391039

More Conditions Fewer Conditions

Pressure 29.63 in
Visibility 10.0 miles
Clouds Overcast 4200 ft
Windchill 42 °F
Dew Point 30 °F
Humidity 62%
Rainfall 0.00 in
Snow Depth Not available.
UV 0 out of 12
Pollen 2.50 out of 12
Air Quality Not available.
Flu Activity Not available.
METAR KFVE 262153Z AUTO 24004KT 10SM OVC042 04/M04 A2961 RMK AO2 SLP034 T00391039

More Conditions Fewer Conditions

10-Day Weather Forecast

Almanac

Astronomy

Mar. 26, 2015 Rise Set
Actual Time
Civil Twilight
Nautical Twilight
Astronomical Twilight
Moon
Length of Visible Light
Length of Day
Tomorrow will be .
, % of the Moon is Illuminated

Today's Extremes

State Highs State Lows

Community

WunderPhotos

Upload Photos

1,808,627 photos uploaded!

WunderBlogs® & News

Nearby

Air Quality

  Air Quality AQ Index Pollutant
Not available.

Snow Depth

Station Depth Elevation

Earthquake Activity

City Distance Mag. Time & Date
Minimum magnitude displayed is 2.5.

Coastal Water Temperatures

Place Temperature

Stations

Nearby Weather Stations

Station Location Temp. Windchill Dew Point Humidity Wind Precip. Elev Updated Type